sensor_id;sensor_type;location;lat;lon;timestamp;P1;durP1;ratioP1;P2;durP2;ratioP2
9888;SDS011;4983;42.112;24.738;2023-01-04T00:00:19;65.80;;;45.80;;
9888;SDS011;4983;42.112;24.738;2023-01-04T00:02:45;68.43;;;46.33;;
9888;SDS011;4983;42.112;24.738;2023-01-04T00:05:12;59.70;;;43.13;;
9888;SDS011;4983;42.112;24.738;2023-01-04T00:07:40;67.40;;;46.10;;
9888;SDS011;4983;42.112;24.738;2023-01-04T00:10:07;68.73;;;46.23;;
9888;SDS011;4983;42.112;24.738;2023-01-04T00:12:34;71.67;;;46.83;;
9888;SDS011;4983;42.112;24.738;2023-01-04T00:15:01;68.60;;;48.70;;
9888;SDS011;4983;42.112;24.738;2023-01-04T00:17:28;75.40;;;49.80;;
9888;SDS011;4983;42.112;24.738;2023-01-04T00:19:55;86.30;;;53.10;;
9888;SDS011;4983;42.112;24.738;2023-01-04T00:22:22;88.83;;;67.07;;
9888;SDS011;4983;42.112;24.738;2023-01-04T00:24:50;67.90;;;50.37;;
9888;SDS011;4983;42.112;24.738;2023-01-04T00:27:16;64.40;;;46.70;;
9888;SDS011;4983;42.112;24.738;2023-01-04T00:29:43;57.33;;;40.97;;
9888;SDS011;4983;42.112;24.738;2023-01-04T00:32:09;85.57;;;44.77;;
9888;SDS011;4983;42.112;24.738;2023-01-04T00:34:36;58.03;;;42.37;;
9888;SDS011;4983;42.112;24.738;2023-01-04T00:37:03;59.30;;;42.83;;
9888;SDS011;4983;42.112;24.738;2023-01-04T00:39:29;62.27;;;43.13;;
9888;SDS011;4983;42.112;24.738;2023-01-04T00:41:58;64.63;;;45.70;;
9888;SDS011;4983;42.112;24.738;2023-01-04T00:44:30;66.70;;;46.60;;
9888;SDS011;4983;42.112;24.738;2023-01-04T00:46:56;59.80;;;43.50;;
9888;SDS011;4983;42.112;24.738;2023-01-04T00:49:24;73.10;;;55.73;;
9888;SDS011;4983;42.112;24.738;2023-01-04T00:51:51;66.40;;;48.50;;
9888;SDS011;4983;42.112;24.738;2023-01-04T00:54:17;63.97;;;44.43;;
9888;SDS011;4983;42.112;24.738;2023-01-04T00:56:44;64.73;;;46.47;;
9888;SDS011;4983;42.112;24.738;2023-01-04T00:59:13;71.23;;;52.80;;
9888;SDS011;4983;42.112;24.738;2023-01-04T01:01:41;69.07;;;50.03;;
9888;SDS011;4983;42.112;24.738;2023-01-04T01:04:09;68.40;;;50.60;;
9888;SDS011;4983;42.112;24.738;2023-01-04T01:06:37;64.70;;;49.57;;
9888;SDS011;4983;42.112;24.738;2023-01-04T01:09:04;62.20;;;46.00;;
9888;SDS011;4983;42.112;24.738;2023-01-04T01:11:30;63.70;;;47.33;;
9888;SDS011;4983;42.112;24.738;2023-01-04T01:13:57;62.40;;;48.47;;
9888;SDS011;4983;42.112;24.738;2023-01-04T01:16:25;63.67;;;48.83;;
9888;SDS011;4983;42.112;24.738;2023-01-04T01:18:52;71.33;;;50.87;;
9888;SDS011;4983;42.112;24.738;2023-01-04T01:21:19;66.83;;;50.40;;
9888;SDS011;4983;42.112;24.738;2023-01-04T01:23:47;56.33;;;45.70;;
9888;SDS011;4983;42.112;24.738;2023-01-04T01:26:14;62.23;;;45.03;;
9888;SDS011;4983;42.112;24.738;2023-01-04T01:28:41;54.63;;;39.07;;
9888;SDS011;4983;42.112;24.738;2023-01-04T01:31:08;60.47;;;39.90;;
9888;SDS011;4983;42.112;24.738;2023-01-04T01:33:37;55.63;;;38.37;;
9888;SDS011;4983;42.112;24.738;2023-01-04T01:36:04;56.77;;;36.77;;
9888;SDS011;4983;42.112;24.738;2023-01-04T01:38:30;59.05;;;47.58;;
9888;SDS011;4983;42.112;24.738;2023-01-04T01:40:57;60.43;;;42.67;;
9888;SDS011;4983;42.112;24.738;2023-01-04T01:46:05;57.13;;;37.87;;
9888;SDS011;4983;42.112;24.738;2023-01-04T01:48:32;55.87;;;38.03;;
9888;SDS011;4983;42.112;24.738;2023-01-04T01:51:00;52.00;;;39.00;;
9888;SDS011;4983;42.112;24.738;2023-01-04T01:53:28;54.97;;;37.47;;
9888;SDS011;4983;42.112;24.738;2023-01-04T01:55:55;55.03;;;39.40;;
9888;SDS011;4983;42.112;24.738;2023-01-04T01:58:24;57.07;;;40.20;;
9888;SDS011;4983;42.112;24.738;2023-01-04T02:00:51;57.07;;;39.73;;
9888;SDS011;4983;42.112;24.738;2023-01-04T02:03:18;58.93;;;40.27;;
9888;SDS011;4983;42.112;24.738;2023-01-04T02:05:46;54.50;;;39.13;;
9888;SDS011;4983;42.112;24.738;2023-01-04T02:08:16;54.97;;;38.23;;
9888;SDS011;4983;42.112;24.738;2023-01-04T02:10:46;62.30;;;38.57;;
9888;SDS011;4983;42.112;24.738;2023-01-04T02:13:13;55.83;;;39.13;;
9888;SDS011;4983;42.112;24.738;2023-01-04T02:15:44;60.97;;;43.60;;
9888;SDS011;4983;42.112;24.738;2023-01-04T02:18:16;56.80;;;44.73;;
9888;SDS011;4983;42.112;24.738;2023-01-04T02:20:46;65.90;;;44.13;;
9888;SDS011;4983;42.112;24.738;2023-01-04T02:28:52;91.23;;;46.90;;
9888;SDS011;4983;42.112;24.738;2023-01-04T02:31:28;65.20;;;44.30;;
9888;SDS011;4983;42.112;24.738;2023-01-04T02:33:58;70.53;;;45.10;;
9888;SDS011;4983;42.112;24.738;2023-01-04T02:36:30;65.73;;;43.80;;
9888;SDS011;4983;42.112;24.738;2023-01-04T02:39:01;66.20;;;44.33;;
9888;SDS011;4983;42.112;24.738;2023-01-04T02:41:31;62.40;;;42.87;;
9888;SDS011;4983;42.112;24.738;2023-01-04T02:44:01;58.90;;;42.00;;
9888;SDS011;4983;42.112;24.738;2023-01-04T02:46:50;56.83;;;37.50;;
9888;SDS011;4983;42.112;24.738;2023-01-04T02:49:18;50.93;;;37.87;;
9888;SDS011;4983;42.112;24.738;2023-01-04T02:52:03;55.90;;;40.27;;
9888;SDS011;4983;42.112;24.738;2023-01-04T02:54:29;56.13;;;41.47;;
9888;SDS011;4983;42.112;24.738;2023-01-04T02:57:06;55.20;;;37.37;;
9888;SDS011;4983;42.112;24.738;2023-01-04T02:59:43;56.50;;;38.43;;
9888;SDS011;4983;42.112;24.738;2023-01-04T03:02:20;61.00;;;42.63;;
9888;SDS011;4983;42.112;24.738;2023-01-04T03:05:10;79.27;;;53.00;;
9888;SDS011;4983;42.112;24.738;2023-01-04T03:07:58;51.40;;;36.33;;
9888;SDS011;4983;42.112;24.738;2023-01-04T03:10:28;52.47;;;36.33;;
9888;SDS011;4983;42.112;24.738;2023-01-04T03:13:00;53.07;;;35.13;;
9888;SDS011;4983;42.112;24.738;2023-01-04T03:15:27;52.60;;;34.73;;
9888;SDS011;4983;42.112;24.738;2023-01-04T03:17:58;52.00;;;34.13;;
9888;SDS011;4983;42.112;24.738;2023-01-04T03:20:27;51.00;;;36.00;;
9888;SDS011;4983;42.112;24.738;2023-01-04T03:22:55;71.40;;;38.20;;
9888;SDS011;4983;42.112;24.738;2023-01-04T03:25:41;57.13;;;37.17;;
9888;SDS011;4983;42.112;24.738;2023-01-04T03:28:27;53.40;;;36.07;;
9888;SDS011;4983;42.112;24.738;2023-01-04T03:31:13;49.63;;;35.90;;
9888;SDS011;4983;42.112;24.738;2023-01-04T03:34:02;52.10;;;34.77;;
9888;SDS011;4983;42.112;24.738;2023-01-04T03:36:57;60.97;;;36.63;;
9888;SDS011;4983;42.112;24.738;2023-01-04T03:39:29;84.07;;;48.30;;
9888;SDS011;4983;42.112;24.738;2023-01-04T03:42:17;74.50;;;47.40;;
9888;SDS011;4983;42.112;24.738;2023-01-04T03:45:05;70.73;;;47.43;;
9888;SDS011;4983;42.112;24.738;2023-01-04T03:47:55;65.07;;;42.70;;
9888;SDS011;4983;42.112;24.738;2023-01-04T03:50:43;64.40;;;45.93;;
9888;SDS011;4983;42.112;24.738;2023-01-04T03:53:11;54.70;;;36.83;;
9888;SDS011;4983;42.112;24.738;2023-01-04T03:55:38;55.73;;;39.17;;
9888;SDS011;4983;42.112;24.738;2023-01-04T03:58:07;62.80;;;40.53;;
9888;SDS011;4983;42.112;24.738;2023-01-04T04:00:34;49.80;;;35.73;;
9888;SDS011;4983;42.112;24.738;2023-01-04T04:03:00;52.00;;;36.93;;
9888;SDS011;4983;42.112;24.738;2023-01-04T04:05:33;51.77;;;36.43;;
9888;SDS011;4983;42.112;24.738;2023-01-04T04:08:19;53.67;;;35.00;;
9888;SDS011;4983;42.112;24.738;2023-01-04T04:10:55;56.20;;;35.30;;
9888;SDS011;4983;42.112;24.738;2023-01-04T04:13:22;63.00;;;36.20;;
9888;SDS011;4983;42.112;24.738;2023-01-04T04:15:51;62.57;;;38.70;;
9888;SDS011;4983;42.112;24.738;2023-01-04T04:18:17;188.10;;;71.13;;
9888;SDS011;4983;42.112;24.738;2023-01-04T04:20:44;67.50;;;41.77;;
9888;SDS011;4983;42.112;24.738;2023-01-04T04:23:10;58.80;;;38.57;;
9888;SDS011;4983;42.112;24.738;2023-01-04T04:25:38;76.00;;;38.53;;
9888;SDS011;4983;42.112;24.738;2023-01-04T04:28:05;70.40;;;38.27;;
9888;SDS011;4983;42.112;24.738;2023-01-04T04:30:32;59.80;;;37.70;;
9888;SDS011;4983;42.112;24.738;2023-01-04T04:32:59;65.03;;;37.20;;
9888;SDS011;4983;42.112;24.738;2023-01-04T04:35:26;58.10;;;36.30;;
9888;SDS011;4983;42.112;24.738;2023-01-04T04:37:52;53.57;;;35.40;;
9888;SDS011;4983;42.112;24.738;2023-01-04T04:40:19;60.77;;;41.43;;
9888;SDS011;4983;42.112;24.738;2023-01-04T04:43:07;53.73;;;35.57;;
9888;SDS011;4983;42.112;24.738;2023-01-04T04:45:34;58.03;;;33.93;;
9888;SDS011;4983;42.112;24.738;2023-01-04T04:48:01;59.37;;;35.13;;
9888;SDS011;4983;42.112;24.738;2023-01-04T04:50:27;47.50;;;33.77;;
9888;SDS011;4983;42.112;24.738;2023-01-04T04:52:54;47.70;;;33.83;;
9888;SDS011;4983;42.112;24.738;2023-01-04T04:55:20;49.50;;;34.67;;
9888;SDS011;4983;42.112;24.738;2023-01-04T04:57:47;59.50;;;38.37;;
9888;SDS011;4983;42.112;24.738;2023-01-04T05:00:15;62.20;;;36.13;;
9888;SDS011;4983;42.112;24.738;2023-01-04T05:02:42;61.87;;;35.83;;
9888;SDS011;4983;42.112;24.738;2023-01-04T05:05:09;56.77;;;35.57;;
9888;SDS011;4983;42.112;24.738;2023-01-04T05:07:36;47.70;;;34.10;;
9888;SDS011;4983;42.112;24.738;2023-01-04T05:10:03;95.33;;;56.40;;
9888;SDS011;4983;42.112;24.738;2023-01-04T05:12:30;62.10;;;39.70;;
9888;SDS011;4983;42.112;24.738;2023-01-04T05:15:21;51.80;;;35.40;;
9888;SDS011;4983;42.112;24.738;2023-01-04T05:17:47;65.90;;;34.07;;
9888;SDS011;4983;42.112;24.738;2023-01-04T05:20:14;77.97;;;33.13;;
9888;SDS011;4983;42.112;24.738;2023-01-04T05:22:41;88.27;;;34.83;;
9888;SDS011;4983;42.112;24.738;2023-01-04T05:25:08;87.87;;;37.03;;
9888;SDS011;4983;42.112;24.738;2023-01-04T05:27:36;61.00;;;32.37;;
9888;SDS011;4983;42.112;24.738;2023-01-04T05:30:03;88.37;;;43.60;;
9888;SDS011;4983;42.112;24.738;2023-01-04T05:32:48;104.57;;;38.70;;
9888;SDS011;4983;42.112;24.738;2023-01-04T05:35:15;64.30;;;36.50;;
9888;SDS011;4983;42.112;24.738;2023-01-04T05:37:42;55.70;;;32.03;;
9888;SDS011;4983;42.112;24.738;2023-01-04T05:40:08;52.87;;;32.63;;
9888;SDS011;4983;42.112;24.738;2023-01-04T05:42:35;56.17;;;33.87;;
9888;SDS011;4983;42.112;24.738;2023-01-04T05:45:02;58.00;;;32.33;;
9888;SDS011;4983;42.112;24.738;2023-01-04T05:47:29;38.43;;;29.90;;
9888;SDS011;4983;42.112;24.738;2023-01-04T05:49:57;40.80;;;30.07;;
9888;SDS011;4983;42.112;24.738;2023-01-04T05:52:24;52.33;;;30.33;;
9888;SDS011;4983;42.112;24.738;2023-01-04T05:54:50;74.47;;;32.40;;
9888;SDS011;4983;42.112;24.738;2023-01-04T05:57:17;62.70;;;33.37;;
9888;SDS011;4983;42.112;24.738;2023-01-04T05:59:44;55.43;;;31.40;;
9888;SDS011;4983;42.112;24.738;2023-01-04T06:02:15;57.57;;;37.30;;
9888;SDS011;4983;42.112;24.738;2023-01-04T06:04:42;129.67;;;92.10;;
9888;SDS011;4983;42.112;24.738;2023-01-04T06:07:10;97.33;;;69.67;;
9888;SDS011;4983;42.112;24.738;2023-01-04T06:09:36;78.27;;;53.67;;
9888;SDS011;4983;42.112;24.738;2023-01-04T06:12:03;62.30;;;44.10;;
9888;SDS011;4983;42.112;24.738;2023-01-04T06:14:29;48.40;;;36.60;;
9888;SDS011;4983;42.112;24.738;2023-01-04T06:16:56;47.17;;;34.73;;
9888;SDS011;4983;42.112;24.738;2023-01-04T06:19:23;54.10;;;36.33;;
9888;SDS011;4983;42.112;24.738;2023-01-04T06:21:50;50.77;;;34.73;;
9888;SDS011;4983;42.112;24.738;2023-01-04T06:24:17;83.40;;;38.07;;
9888;SDS011;4983;42.112;24.738;2023-01-04T06:26:44;76.63;;;41.30;;
9888;SDS011;4983;42.112;24.738;2023-01-04T06:29:11;88.13;;;47.17;;
9888;SDS011;4983;42.112;24.738;2023-01-04T06:31:38;76.50;;;46.00;;
9888;SDS011;4983;42.112;24.738;2023-01-04T06:34:05;83.47;;;45.13;;
9888;SDS011;4983;42.112;24.738;2023-01-04T06:36:31;82.43;;;45.70;;
9888;SDS011;4983;42.112;24.738;2023-01-04T06:39:00;73.13;;;49.30;;
9888;SDS011;4983;42.112;24.738;2023-01-04T06:41:28;64.87;;;42.17;;
9888;SDS011;4983;42.112;24.738;2023-01-04T06:43:54;85.30;;;54.50;;
9888;SDS011;4983;42.112;24.738;2023-01-04T06:46:21;73.27;;;43.23;;
9888;SDS011;4983;42.112;24.738;2023-01-04T06:48:47;76.77;;;41.00;;
9888;SDS011;4983;42.112;24.738;2023-01-04T06:51:14;71.23;;;41.33;;
9888;SDS011;4983;42.112;24.738;2023-01-04T06:53:40;73.13;;;41.10;;
9888;SDS011;4983;42.112;24.738;2023-01-04T06:56:07;57.83;;;41.37;;
9888;SDS011;4983;42.112;24.738;2023-01-04T06:58:35;104.07;;;47.37;;
9888;SDS011;4983;42.112;24.738;2023-01-04T07:01:02;88.47;;;51.07;;
9888;SDS011;4983;42.112;24.738;2023-01-04T07:03:29;69.73;;;48.77;;
9888;SDS011;4983;42.112;24.738;2023-01-04T07:05:56;75.00;;;45.83;;
9888;SDS011;4983;42.112;24.738;2023-01-04T07:08:22;75.40;;;45.10;;
9888;SDS011;4983;42.112;24.738;2023-01-04T07:10:49;85.63;;;47.67;;
9888;SDS011;4983;42.112;24.738;2023-01-04T07:13:15;82.40;;;46.67;;
9888;SDS011;4983;42.112;24.738;2023-01-04T07:15:44;69.60;;;46.37;;
9888;SDS011;4983;42.112;24.738;2023-01-04T07:18:10;97.70;;;51.90;;
9888;SDS011;4983;42.112;24.738;2023-01-04T07:20:37;118.40;;;70.63;;
9888;SDS011;4983;42.112;24.738;2023-01-04T07:23:04;100.80;;;53.07;;
9888;SDS011;4983;42.112;24.738;2023-01-04T07:25:31;67.40;;;44.03;;
9888;SDS011;4983;42.112;24.738;2023-01-04T07:27:57;68.68;;;44.10;;
9888;SDS011;4983;42.112;24.738;2023-01-04T07:30:24;87.57;;;51.33;;
9888;SDS011;4983;42.112;24.738;2023-01-04T07:32:52;75.80;;;46.03;;
9888;SDS011;4983;42.112;24.738;2023-01-04T07:35:19;72.53;;;39.63;;
9888;SDS011;4983;42.112;24.738;2023-01-04T07:37:46;59.53;;;38.13;;
9888;SDS011;4983;42.112;24.738;2023-01-04T07:40:13;65.67;;;37.07;;
9888;SDS011;4983;42.112;24.738;2023-01-04T07:42:40;54.67;;;36.73;;
9888;SDS011;4983;42.112;24.738;2023-01-04T07:45:07;59.70;;;35.63;;
9888;SDS011;4983;42.112;24.738;2023-01-04T07:47:34;68.03;;;41.67;;
9888;SDS011;4983;42.112;24.738;2023-01-04T07:50:02;53.17;;;32.73;;
9888;SDS011;4983;42.112;24.738;2023-01-04T07:52:30;42.70;;;29.30;;
9888;SDS011;4983;42.112;24.738;2023-01-04T07:54:56;37.57;;;27.30;;
9888;SDS011;4983;42.112;24.738;2023-01-04T07:57:23;76.43;;;29.53;;
9888;SDS011;4983;42.112;24.738;2023-01-04T07:59:50;42.77;;;27.97;;
9888;SDS011;4983;42.112;24.738;2023-01-04T08:02:16;39.17;;;26.77;;
9888;SDS011;4983;42.112;24.738;2023-01-04T08:04:43;51.50;;;27.97;;
9888;SDS011;4983;42.112;24.738;2023-01-04T08:07:11;37.10;;;26.60;;
9888;SDS011;4983;42.112;24.738;2023-01-04T08:09:37;35.47;;;27.37;;
9888;SDS011;4983;42.112;24.738;2023-01-04T08:12:04;36.20;;;26.90;;
9888;SDS011;4983;42.112;24.738;2023-01-04T08:14:31;36.67;;;26.73;;
9888;SDS011;4983;42.112;24.738;2023-01-04T08:16:57;39.83;;;28.23;;
9888;SDS011;4983;42.112;24.738;2023-01-04T08:19:24;40.97;;;29.43;;
9888;SDS011;4983;42.112;24.738;2023-01-04T08:21:52;50.03;;;33.83;;
9888;SDS011;4983;42.112;24.738;2023-01-04T08:24:19;48.23;;;34.37;;
9888;SDS011;4983;42.112;24.738;2023-01-04T08:26:46;68.07;;;32.40;;
9888;SDS011;4983;42.112;24.738;2023-01-04T08:29:13;53.27;;;31.60;;
9888;SDS011;4983;42.112;24.738;2023-01-04T08:31:40;41.60;;;28.00;;
9888;SDS011;4983;42.112;24.738;2023-01-04T08:34:07;35.83;;;26.10;;
9888;SDS011;4983;42.112;24.738;2023-01-04T08:36:35;30.67;;;22.83;;
9888;SDS011;4983;42.112;24.738;2023-01-04T08:39:03;28.80;;;22.90;;
9888;SDS011;4983;42.112;24.738;2023-01-04T08:41:32;32.70;;;23.53;;
9888;SDS011;4983;42.112;24.738;2023-01-04T08:44:15;30.03;;;22.30;;
9888;SDS011;4983;42.112;24.738;2023-01-04T08:46:41;28.03;;;22.70;;
9888;SDS011;4983;42.112;24.738;2023-01-04T08:49:08;27.90;;;21.03;;
9888;SDS011;4983;42.112;24.738;2023-01-04T08:51:34;27.17;;;20.10;;
9888;SDS011;4983;42.112;24.738;2023-01-04T08:54:01;28.83;;;21.50;;
9888;SDS011;4983;42.112;24.738;2023-01-04T08:56:28;29.07;;;19.70;;
9888;SDS011;4983;42.112;24.738;2023-01-04T08:58:56;27.43;;;18.90;;
9888;SDS011;4983;42.112;24.738;2023-01-04T09:01:22;22.13;;;18.63;;
9888;SDS011;4983;42.112;24.738;2023-01-04T09:03:49;25.87;;;17.23;;
9888;SDS011;4983;42.112;24.738;2023-01-04T09:06:16;20.77;;;17.10;;
9888;SDS011;4983;42.112;24.738;2023-01-04T09:08:43;24.87;;;15.80;;
9888;SDS011;4983;42.112;24.738;2023-01-04T09:11:10;19.27;;;16.27;;
9888;SDS011;4983;42.112;24.738;2023-01-04T09:13:37;20.40;;;14.67;;
9888;SDS011;4983;42.112;24.738;2023-01-04T09:16:06;21.27;;;15.00;;
9888;SDS011;4983;42.112;24.738;2023-01-04T09:18:33;16.90;;;13.33;;
9888;SDS011;4983;42.112;24.738;2023-01-04T09:21:03;16.77;;;12.20;;
9888;SDS011;4983;42.112;24.738;2023-01-04T09:23:30;23.73;;;13.67;;
9888;SDS011;4983;42.112;24.738;2023-01-04T09:25:58;17.27;;;14.25;;
9888;SDS011;4983;42.112;24.738;2023-01-04T09:28:25;28.60;;;12.57;;
9888;SDS011;4983;42.112;24.738;2023-01-04T09:30:52;22.83;;;10.37;;
9888;SDS011;4983;42.112;24.738;2023-01-04T09:33:20;16.83;;;10.67;;
9888;SDS011;4983;42.112;24.738;2023-01-04T09:35:47;11.80;;;9.80;;
9888;SDS011;4983;42.112;24.738;2023-01-04T09:38:14;37.87;;;11.83;;
9888;SDS011;4983;42.112;24.738;2023-01-04T09:40:44;12.70;;;10.30;;
9888;SDS011;4983;42.112;24.738;2023-01-04T09:43:14;24.87;;;10.80;;
9888;SDS011;4983;42.112;24.738;2023-01-04T09:45:43;15.77;;;10.40;;
9888;SDS011;4983;42.112;24.738;2023-01-04T09:48:12;16.17;;;9.97;;
9888;SDS011;4983;42.112;24.738;2023-01-04T09:50:43;18.43;;;10.40;;
9888;SDS011;4983;42.112;24.738;2023-01-04T09:53:11;17.00;;;11.10;;
9888;SDS011;4983;42.112;24.738;2023-01-04T09:55:42;13.70;;;10.43;;
9888;SDS011;4983;42.112;24.738;2023-01-04T09:58:15;33.00;;;11.30;;
9888;SDS011;4983;42.112;24.738;2023-01-04T10:00:44;65.50;;;13.47;;
9888;SDS011;4983;42.112;24.738;2023-01-04T10:03:11;15.70;;;10.73;;
9888;SDS011;4983;42.112;24.738;2023-01-04T10:05:39;21.47;;;11.07;;
9888;SDS011;4983;42.112;24.738;2023-01-04T10:08:09;14.57;;;10.80;;
9888;SDS011;4983;42.112;24.738;2023-01-04T10:10:48;19.20;;;11.70;;
9888;SDS011;4983;42.112;24.738;2023-01-04T10:13:20;14.43;;;11.10;;
9888;SDS011;4983;42.112;24.738;2023-01-04T10:15:50;14.83;;;10.80;;
9888;SDS011;4983;42.112;24.738;2023-01-04T10:18:21;15.50;;;10.60;;
9888;SDS011;4983;42.112;24.738;2023-01-04T10:23:40;15.03;;;11.00;;
9888;SDS011;4983;42.112;24.738;2023-01-04T10:26:12;12.63;;;10.50;;
9888;SDS011;4983;42.112;24.738;2023-01-04T10:28:44;14.63;;;10.60;;
9888;SDS011;4983;42.112;24.738;2023-01-04T10:31:13;20.20;;;11.03;;
9888;SDS011;4983;42.112;24.738;2023-01-04T10:33:41;12.67;;;10.43;;
9888;SDS011;4983;42.112;24.738;2023-01-04T10:36:16;17.23;;;10.57;;
9888;SDS011;4983;42.112;24.738;2023-01-04T10:38:45;14.40;;;10.40;;
9888;SDS011;4983;42.112;24.738;2023-01-04T10:41:14;15.47;;;10.67;;
9888;SDS011;4983;42.112;24.738;2023-01-04T10:43:46;14.80;;;10.03;;
9888;SDS011;4983;42.112;24.738;2023-01-04T10:46:16;13.67;;;10.13;;
9888;SDS011;4983;42.112;24.738;2023-01-04T10:48:45;23.40;;;11.43;;
9888;SDS011;4983;42.112;24.738;2023-01-04T10:51:14;20.53;;;12.47;;
9888;SDS011;4983;42.112;24.738;2023-01-04T10:53:47;13.73;;;10.73;;
9888;SDS011;4983;42.112;24.738;2023-01-04T10:56:15;12.33;;;10.67;;
9888;SDS011;4983;42.112;24.738;2023-01-04T10:58:44;33.10;;;11.93;;
9888;SDS011;4983;42.112;24.738;2023-01-04T11:01:13;20.80;;;11.43;;
9888;SDS011;4983;42.112;24.738;2023-01-04T11:03:42;23.57;;;11.47;;
9888;SDS011;4983;42.112;24.738;2023-01-04T11:06:11;22.33;;;11.80;;
9888;SDS011;4983;42.112;24.738;2023-01-04T11:08:42;14.50;;;10.00;;
9888;SDS011;4983;42.112;24.738;2023-01-04T11:11:11;19.27;;;10.07;;
9888;SDS011;4983;42.112;24.738;2023-01-04T11:13:40;14.17;;;9.90;;
9888;SDS011;4983;42.112;24.738;2023-01-04T11:16:08;12.93;;;9.70;;
9888;SDS011;4983;42.112;24.738;2023-01-04T11:18:35;15.67;;;9.77;;
9888;SDS011;4983;42.112;24.738;2023-01-04T11:21:03;19.43;;;10.13;;
9888;SDS011;4983;42.112;24.738;2023-01-04T11:23:31;11.57;;;9.63;;
9888;SDS011;4983;42.112;24.738;2023-01-04T11:25:59;10.35;;;9.23;;
9888;SDS011;4983;42.112;24.738;2023-01-04T11:28:33;13.03;;;9.23;;
9888;SDS011;4983;42.112;24.738;2023-01-04T11:31:02;15.60;;;9.43;;
9888;SDS011;4983;42.112;24.738;2023-01-04T11:33:31;19.07;;;9.50;;
9888;SDS011;4983;42.112;24.738;2023-01-04T11:36:20;45.47;;;13.07;;
9888;SDS011;4983;42.112;24.738;2023-01-04T11:38:57;26.47;;;11.10;;
9888;SDS011;4983;42.112;24.738;2023-01-04T11:41:24;10.73;;;9.13;;
9888;SDS011;4983;42.112;24.738;2023-01-04T11:43:56;12.23;;;8.73;;
9888;SDS011;4983;42.112;24.738;2023-01-04T11:46:23;10.43;;;8.87;;
9888;SDS011;4983;42.112;24.738;2023-01-04T11:48:50;11.27;;;8.70;;
9888;SDS011;4983;42.112;24.738;2023-01-04T11:51:18;9.70;;;8.50;;
9888;SDS011;4983;42.112;24.738;2023-01-04T11:53:45;18.47;;;9.70;;
9888;SDS011;4983;42.112;24.738;2023-01-04T11:56:23;20.40;;;9.70;;
9888;SDS011;4983;42.112;24.738;2023-01-04T12:01:38;11.43;;;8.80;;
9888;SDS011;4983;42.112;24.738;2023-01-04T12:04:08;15.40;;;9.77;;
9888;SDS011;4983;42.112;24.738;2023-01-04T12:06:37;19.93;;;10.50;;
9888;SDS011;4983;42.112;24.738;2023-01-04T12:09:04;11.23;;;9.07;;
9888;SDS011;4983;42.112;24.738;2023-01-04T12:11:32;10.33;;;8.87;;
9888;SDS011;4983;42.112;24.738;2023-01-04T12:13:59;10.47;;;9.37;;
9888;SDS011;4983;42.112;24.738;2023-01-04T12:19:09;16.40;;;9.87;;
9888;SDS011;4983;42.112;24.738;2023-01-04T12:21:38;15.23;;;9.70;;
9888;SDS011;4983;42.112;24.738;2023-01-04T12:24:07;13.57;;;9.13;;
9888;SDS011;4983;42.112;24.738;2023-01-04T12:26:39;16.73;;;9.30;;
9888;SDS011;4983;42.112;24.738;2023-01-04T12:31:51;11.73;;;9.10;;
9888;SDS011;4983;42.112;24.738;2023-01-04T12:34:38;11.03;;;9.03;;
9888;SDS011;4983;42.112;24.738;2023-01-04T12:37:05;13.00;;;8.70;;
9888;SDS011;4983;42.112;24.738;2023-01-04T12:39:35;11.03;;;7.73;;
9888;SDS011;4983;42.112;24.738;2023-01-04T12:42:07;9.90;;;8.20;;
9888;SDS011;4983;42.112;24.738;2023-01-04T12:50:20;10.40;;;8.27;;
9888;SDS011;4983;42.112;24.738;2023-01-04T12:52:51;10.80;;;8.20;;
9888;SDS011;4983;42.112;24.738;2023-01-04T13:01:08;9.73;;;8.80;;
9888;SDS011;4983;42.112;24.738;2023-01-04T13:03:48;12.63;;;8.70;;
9888;SDS011;4983;42.112;24.738;2023-01-04T13:06:20;12.97;;;9.00;;
9888;SDS011;4983;42.112;24.738;2023-01-04T13:08:48;10.30;;;8.23;;
9888;SDS011;4983;42.112;24.738;2023-01-04T13:11:23;12.30;;;10.33;;
9888;SDS011;4983;42.112;24.738;2023-01-04T13:13:54;13.87;;;8.97;;
9888;SDS011;4983;42.112;24.738;2023-01-04T13:16:24;12.00;;;8.50;;
9888;SDS011;4983;42.112;24.738;2023-01-04T13:18:53;11.03;;;8.67;;
9888;SDS011;4983;42.112;24.738;2023-01-04T13:21:25;11.40;;;8.73;;
9888;SDS011;4983;42.112;24.738;2023-01-04T13:23:53;10.23;;;8.17;;
9888;SDS011;4983;42.112;24.738;2023-01-04T13:26:27;9.13;;;8.23;;
9888;SDS011;4983;42.112;24.738;2023-01-04T13:29:11;10.93;;;8.53;;
9888;SDS011;4983;42.112;24.738;2023-01-04T13:31:41;14.27;;;8.77;;
9888;SDS011;4983;42.112;24.738;2023-01-04T13:34:12;23.40;;;9.70;;
9888;SDS011;4983;42.112;24.738;2023-01-04T13:36:42;10.00;;;8.87;;
9888;SDS011;4983;42.112;24.738;2023-01-04T13:39:09;10.37;;;9.23;;
9888;SDS011;4983;42.112;24.738;2023-01-04T13:41:37;17.03;;;9.23;;
9888;SDS011;4983;42.112;24.738;2023-01-04T13:44:05;12.40;;;9.17;;
9888;SDS011;4983;42.112;24.738;2023-01-04T13:46:36;13.47;;;9.23;;
9888;SDS011;4983;42.112;24.738;2023-01-04T13:49:06;17.60;;;10.37;;
9888;SDS011;4983;42.112;24.738;2023-01-04T13:51:37;12.27;;;10.47;;
9888;SDS011;4983;42.112;24.738;2023-01-04T13:54:05;13.33;;;10.10;;
9888;SDS011;4983;42.112;24.738;2023-01-04T13:56:33;19.37;;;11.20;;
9888;SDS011;4983;42.112;24.738;2023-01-04T13:59:00;13.53;;;10.10;;
9888;SDS011;4983;42.112;24.738;2023-01-04T14:01:27;18.70;;;11.10;;
9888;SDS011;4983;42.112;24.738;2023-01-04T14:03:55;13.93;;;10.13;;
9888;SDS011;4983;42.112;24.738;2023-01-04T14:06:24;17.47;;;10.63;;
9888;SDS011;4983;42.112;24.738;2023-01-04T14:08:56;31.23;;;12.60;;
9888;SDS011;4983;42.112;24.738;2023-01-04T14:11:26;16.97;;;10.80;;
9888;SDS011;4983;42.112;24.738;2023-01-04T14:14:15;14.23;;;10.77;;
9888;SDS011;4983;42.112;24.738;2023-01-04T14:16:43;29.20;;;12.17;;
9888;SDS011;4983;42.112;24.738;2023-01-04T14:19:26;18.57;;;11.27;;
9888;SDS011;4983;42.112;24.738;2023-01-04T14:21:53;25.07;;;11.87;;
9888;SDS011;4983;42.112;24.738;2023-01-04T14:24:29;21.40;;;11.10;;
9888;SDS011;4983;42.112;24.738;2023-01-04T14:26:58;58.03;;;14.50;;
9888;SDS011;4983;42.112;24.738;2023-01-04T14:29:27;29.43;;;12.77;;
9888;SDS011;4983;42.112;24.738;2023-01-04T14:31:55;25.83;;;12.00;;
9888;SDS011;4983;42.112;24.738;2023-01-04T14:34:21;14.87;;;11.53;;
9888;SDS011;4983;42.112;24.738;2023-01-04T14:36:48;16.83;;;11.63;;
9888;SDS011;4983;42.112;24.738;2023-01-04T14:39:17;83.80;;;17.97;;
9888;SDS011;4983;42.112;24.738;2023-01-04T14:41:50;128.03;;;21.73;;
9888;SDS011;4983;42.112;24.738;2023-01-04T14:44:19;174.73;;;24.23;;
9888;SDS011;4983;42.112;24.738;2023-01-04T14:46:47;150.00;;;23.03;;
9888;SDS011;4983;42.112;24.738;2023-01-04T14:49:14;194.67;;;27.53;;
9888;SDS011;4983;42.112;24.738;2023-01-04T14:51:42;67.53;;;18.50;;
9888;SDS011;4983;42.112;24.738;2023-01-04T14:54:10;134.57;;;24.77;;
9888;SDS011;4983;42.112;24.738;2023-01-04T14:56:37;134.30;;;23.70;;
9888;SDS011;4983;42.112;24.738;2023-01-04T14:59:03;173.43;;;25.80;;
9888;SDS011;4983;42.112;24.738;2023-01-04T15:01:31;148.57;;;25.23;;
9888;SDS011;4983;42.112;24.738;2023-01-04T15:03:58;191.63;;;27.53;;
9888;SDS011;4983;42.112;24.738;2023-01-04T15:06:25;170.87;;;27.83;;
9888;SDS011;4983;42.112;24.738;2023-01-04T15:08:51;142.27;;;24.60;;
9888;SDS011;4983;42.112;24.738;2023-01-04T15:11:18;92.90;;;22.40;;
9888;SDS011;4983;42.112;24.738;2023-01-04T15:13:44;153.37;;;25.83;;
9888;SDS011;4983;42.112;24.738;2023-01-04T15:16:12;173.53;;;29.00;;
9888;SDS011;4983;42.112;24.738;2023-01-04T15:18:41;118.77;;;24.43;;